Latest Weather Observations for Mullion

IDN60801

Issued at 10:42 am EST Wednesday 22 May 2019 (issued every 10 minutes, with the page automatically refreshed every 10 minutes)

About weather observations | Map of weather stations | Latest weather observations for NSW | Other Formats
Station Details ID: 250070 Name: PORTABLE RFSACT02 Lat: -35.11 Lon: 148.85 Height: 750.0 m
Data from the previous 72 hours. | See also: Recent months for locations in New South Wales
Date/Time
EST
Temp
°C
App
Temp
°C
Dew
Point
°C
Rel
Hum
%
Delta-T
°C
Wind Press
QNH
hPa
Press
MSL
hPa
Rain since
9am
mm
Dir  Spd
km/h
Gust
km/h
Spd
kts
Gust
kts
22/10:10am 12.6 10.3 9.1 79 1.8 NW 11 11 6 6 - - 0.0
22/10:00am 13.0 11.6 8.7 75 2.2 NNW 6 7 3 4 - - 0.0
22/09:50am 13.2 11.7 8.6 73 2.4 NNW 6 6 3 3 - - 0.0
22/09:40am 13.3 12.4 9.1 76 2.2 NNW 4 6 2 3 - - 0.0
22/09:30am 12.9 11.9 8.9 76 2.1 NNW 4 6 2 3 - - 0.0
22/09:20am 12.8 12.2 9.0 78 2.0 NNW 2 4 1 2 - - 0.0
22/09:10am 12.5 11.8 8.5 76 2.1 N 2 4 1 2 - - 0.0
22/09:00am 11.9 11.3 8.9 82 1.6 E 2 4 1 2 - - 0.0
22/08:50am 11.3 10.5 8.1 81 1.6 SE 2 4 1 2 - - 0.0
22/08:40am 10.8 9.6 7.9 82 1.5 SE 4 6 2 3 - - 0.0
22/08:30am 10.9 9.8 8.3 84 1.3 SE 4 6 2 3 - - 0.0
22/08:20am 10.7 10.3 8.3 85 1.2 CALM 0 2 0 1 - - 0.0
22/08:10am 10.3 9.4 7.9 85 1.2 SE 2 2 1 1 - - 0.0
22/08:00am 9.9 8.2 7.7 86 1.1 SSE 6 7 3 4 - - 0.0
22/07:50am 9.7 8.0 7.6 87 1.0 SSE 6 7 3 4 - - 0.0
22/07:40am 9.5 8.2 7.7 88 0.9 SE 4 6 2 3 - - 0.0
22/07:30am 9.2 7.6 7.8 91 0.7 SSE 6 6 3 3 - - 0.0
22/07:20am 9.0 7.8 7.9 93 0.5 SSE 4 6 2 3 - - 0.0
22/07:10am 9.2 8.0 7.9 92 0.6 SSE 4 6 2 3 - - 0.0
22/07:00am 9.0 7.4 8.0 93 0.5 SSE 6 7 3 4 - - 0.0
22/06:50am 9.1 7.9 8.1 93 0.5 SE 4 6 2 3 - - 0.0
22/06:40am 10.2 9.4 8.3 88 1.0 NNE 2 4 1 2 - - 0.0
22/06:30am 11.9 10.3 8.0 77 2.0 N 6 6 3 3 - - 0.0
22/06:20am 12.0 10.2 7.0 71 2.5 NNW 6 7 3 4 - - 0.0
22/06:10am 12.1 10.3 7.0 71 2.6 NNW 6 7 3 4 - - 0.0
22/06:00am 12.2 10.3 6.8 69 2.7 NNW 6 7 3 4 - - 0.0
22/05:50am 12.2 10.2 6.9 70 2.6 NNW 7 9 4 5 - - 0.0
22/05:40am 12.1 10.1 7.0 71 2.6 NNW 7 9 4 5 - - 0.0
22/05:30am 12.5 10.5 6.9 68 2.8 NNW 7 9 4 5 - - 0.0
22/05:20am 12.4 10.5 6.8 68 2.8 NNW 6 7 3 4 - - 0.0
22/05:10am 12.2 10.1 6.8 69 2.7 NW 7 9 4 5 - - 0.0
22/05:00am 11.9 9.5 7.0 72 2.4 NW 9 11 5 6 - - 0.0
22/04:50am 11.8 9.1 7.3 74 2.3 NW 11 11 6 6 - - 0.0
22/04:40am 12.0 9.2 7.1 72 2.5 NNW 11 13 6 7 - - 0.0
22/04:30am 12.0 9.3 7.2 72 2.4 NNW 11 11 6 6 - - 0.0
22/04:20am 12.1 9.7 7.2 72 2.5 NNW 9 11 5 6 - - 0.0
22/04:00am 12.6 10.5 6.8 68 2.9 WNW 7 9 4 5 - - 0.0
22/03:50am 12.4 10.0 7.1 70 2.7 W 9 11 5 6 - - 0.0
22/03:40am 12.1 9.8 7.3 72 2.4 WNW 9 11 5 6 - - 0.0
22/03:30am 12.2 9.4 7.1 71 2.6 W 11 13 6 7 - - 0.0
22/03:20am 11.8 8.7 7.4 74 2.2 W 13 13 7 7 - - 0.0
22/03:10am 12.3 8.9 7.6 73 2.4 W 15 15 8 8 - - 0.0
22/03:00am 12.3 8.7 6.9 69 2.7 WSW 15 15 8 8 - - 0.0
22/02:50am 11.4 8.3 7.2 75 2.1 W 13 15 7 8 - - 0.0
22/02:40am 11.5 8.9 7.9 78 1.8 WNW 11 11 6 6 - - 0.0
22/02:30am 11.5 8.8 7.5 76 2.0 WNW 11 11 6 6 - - 0.0
22/02:20am 11.5 9.2 7.3 75 2.1 NW 9 11 5 6 - - 0.0
22/02:10am 11.4 8.9 8.1 80 1.7 NW 11 11 6 6 - - 0.0
22/02:00am 12.3 10.1 7.8 74 2.3 NW 9 11 5 6 - - 0.0
22/01:50am 12.7 10.3 7.2 69 2.8 WNW 9 9 5 5 - - 0.0
22/01:40am 12.9 10.2 7.4 69 2.8 W 11 13 6 7 - - 0.0
22/01:30am 13.1 10.0 7.3 68 2.9 W 13 15 7 8 - - 0.0
22/01:20am 13.5 9.9 6.9 64 3.3 W 15 15 8 8 - - 0.0
22/01:10am 13.5 10.4 7.1 65 3.2 W 13 15 7 8 - - 0.0
22/01:00am 13.4 10.2 7.0 65 3.2 WSW 13 17 7 9 - - 0.0
22/12:50am 12.8 9.6 6.7 66 3.0 W 13 15 7 8 - - 0.0
22/12:40am 12.1 9.1 7.8 75 2.2 W 13 13 7 7 - - 0.0
22/12:30am 11.7 8.7 7.9 77 1.9 W 13 15 7 8 - - 0.0
22/12:20am 11.6 8.7 8.1 79 1.8 WNW 13 15 7 8 - - 0.0
22/12:10am 12.0 9.4 7.8 75 2.1 WNW 11 13 6 7 - - 0.0
22/12:00am 12.4 9.1 7.9 74 2.3 W 15 17 8 9 - - 0.0
 
Date/Time
EST
Temp
°C
App
Temp
°C
Dew
Point
°C
Rel
Hum
%
Delta-T
°C
Wind Press
QNH
hPa
Press
MSL
hPa
Rain since
9am
mm
Dir  Spd
km/h
Gust
km/h
Spd
kts
Gust
kts
21/11:50pm 12.7 9.2 7.4 70 2.7 W 15 17 8 9 - - 0.0
21/11:40pm 12.5 8.9 6.6 67 2.9 W 15 19 8 10 - - 0.0
21/11:30pm 12.8 9.3 7.3 69 2.8 W 15 15 8 8 - - 0.0
21/11:20pm 13.1 10.0 7.1 67 3.0 WNW 13 15 7 8 - - 0.0
21/11:10pm 13.3 9.7 6.8 64 3.3 WNW 15 15 8 8 - - 0.0
21/11:00pm 13.3 9.8 7.0 65 3.2 WNW 15 17 8 9 - - 0.0
21/10:50pm 13.2 10.1 7.3 67 3.0 NW 13 15 7 8 - - 0.0
21/10:40pm 13.0 9.5 7.0 67 3.0 NW 15 17 8 9 - - 0.0
21/10:30pm 12.9 8.8 7.8 71 2.6 WNW 19 20 10 11 - - 0.0
21/10:20pm 12.9 8.6 7.7 70 2.7 WNW 20 22 11 12 - - 0.0
21/10:00pm 12.6 7.1 7.7 72 2.5 WNW 26 28 14 15 - - 0.0
21/09:50pm 12.1 7.2 8.4 78 1.9 NW 24 26 13 14 - - 0.0
21/09:40pm 12.4 7.5 8.5 77 2.0 WNW 24 24 13 13 - - 0.0
21/09:30pm 12.4 7.8 8.3 76 2.1 WNW 22 24 12 13 - - 0.0
21/09:20pm 12.6 8.4 8.4 75 2.2 NW 20 22 11 12 - - 0.0
21/09:10pm 12.9 8.9 8.2 73 2.4 NW 19 20 10 11 - - 0.0
21/09:00pm 13.4 9.4 8.2 71 2.7 NW 19 19 10 10 - - 0.0
21/08:50pm 13.4 10.1 7.9 69 2.8 WNW 15 17 8 9 - - 0.0
21/08:40pm 13.8 10.5 7.9 67 3.0 WNW 15 15 8 8 - - 0.0
21/08:30pm 13.8 11.2 7.8 67 3.1 WNW 11 11 6 6 - - 0.0
21/08:20pm 13.7 11.3 8.6 71 2.7 WNW 11 13 6 7 - - 0.0
21/08:10pm 13.9 11.1 8.5 70 2.8 WNW 13 15 7 8 - - 0.0
21/08:00pm 13.8 11.1 8.8 72 2.6 NW 13 15 7 8 - - 0.0
21/07:50pm 14.0 10.9 9.0 72 2.6 NW 15 15 8 8 - - 0.0
21/07:40pm 14.2 11.5 9.0 71 2.7 NW 13 15 7 8 - - 0.0
21/07:30pm 14.2 11.9 8.9 70 2.8 NW 11 13 6 7 - - 0.0
21/07:20pm 14.2 12.3 9.0 71 2.7 NW 9 11 5 6 - - 0.0
21/07:10pm 14.2 12.3 9.2 72 2.7 NW 9 9 5 5 - - 0.0
21/07:00pm 14.2 12.3 9.0 71 2.7 NW 9 11 5 6 - - 0.0
21/06:50pm 14.3 11.6 8.9 70 2.9 WNW 13 17 7 9 - - 0.0
21/06:40pm 14.4 11.3 9.0 70 2.9 WNW 15 15 8 8 - - 0.0
21/06:30pm 14.5 11.1 9.1 70 2.9 WNW 17 17 9 9 - - 0.0
21/06:20pm 14.6 11.6 9.1 69 2.9 WNW 15 17 8 9 - - 0.0
21/06:10pm 14.6 11.6 9.3 70 2.8 WNW 15 15 8 8 - - 0.0
21/06:00pm 14.7 11.7 9.1 69 3.0 WNW 15 17 8 9 - - 0.0
21/05:50pm 14.8 11.4 9.1 68 3.0 WNW 17 17 9 9 - - 0.0
21/05:40pm 14.9 11.5 9.2 68 3.0 WNW 17 19 9 10 - - 0.0
21/05:30pm 14.9 11.5 9.2 68 3.0 WNW 17 17 9 9 - - 0.0
21/05:20pm 15.0 11.2 9.2 68 3.1 WNW 19 20 10 11 - - 0.0
21/05:10pm 15.1 11.3 9.2 68 3.1 WNW 19 20 10 11 - - 0.0
21/05:00pm 15.2 11.4 9.2 67 3.2 WNW 19 22 10 12 - - 0.0
21/04:50pm 15.3 11.6 9.4 68 3.2 WNW 19 20 10 11 - - 0.0
21/04:40pm 15.5 11.2 9.2 66 3.4 WNW 22 28 12 15 - - 0.0
21/04:30pm 15.6 11.3 9.2 65 3.4 WNW 22 26 12 14 - - 0.0
21/04:20pm 15.7 10.6 9.2 65 3.5 WNW 26 30 14 16 - - 0.0
21/04:10pm 15.8 10.0 9.3 65 3.5 WNW 30 35 16 19 - - 0.0
21/04:00pm 16.0 10.9 9.1 63 3.7 WNW 26 30 14 16 - - 0.0
21/03:50pm 16.0 11.7 9.4 65 3.6 WNW 22 26 12 14 - - 0.0
21/03:40pm 16.1 11.1 9.4 64 3.6 WNW 26 30 14 16 - - 0.0
21/03:30pm 16.2 11.2 9.4 64 3.7 WNW 26 30 14 16 - - 0.0
21/03:20pm 16.1 10.7 9.5 65 3.6 WNW 28 30 15 16 - - 0.0
21/03:10pm 16.1 11.9 9.6 65 3.5 WNW 22 26 12 14 - - 0.0
21/03:00pm 16.3 11.7 9.6 64 3.6 NW 24 26 13 14 - - 0.0
21/02:50pm 16.3 11.3 9.6 64 3.6 NW 26 32 14 17 - - 0.0
21/02:40pm 16.3 10.5 9.4 63 3.7 NW 30 33 16 18 - - 0.0
21/02:30pm 16.3 10.9 9.4 63 3.7 NW 28 32 15 17 - - 0.0
21/02:20pm 16.2 10.4 9.5 64 3.6 NW 30 33 16 18 - - 0.0
21/02:10pm 16.4 11.4 9.6 64 3.7 NW 26 32 14 17 - - 0.0
21/02:00pm 16.3 11.3 9.5 64 3.7 NW 26 28 14 15 - - 0.0
21/01:50pm 16.3 11.3 9.7 65 3.6 NW 26 32 14 17 - - 0.0
21/01:40pm 16.5 11.9 9.6 63 3.7 NW 24 28 13 15 - - 0.0
21/01:30pm 16.5 11.8 9.4 63 3.8 WNW 24 28 13 15 - - 0.0
21/01:20pm 16.6 12.0 9.5 63 3.8 WNW 24 30 13 16 - - 0.0
21/01:10pm 16.7 11.7 9.4 62 3.9 WNW 26 30 14 16 - - 0.0
21/01:00pm 17.0 12.0 9.6 61 4.0 NW 26 32 14 17 - - 0.0
21/12:50pm 17.1 12.5 9.5 61 4.1 WNW 24 30 13 16 - - 0.0
21/12:40pm 16.9 12.2 9.4 61 4.1 WNW 24 32 13 17 - - 0.0
21/12:30pm 16.8 11.7 9.1 60 4.1 WNW 26 30 14 16 - - 0.0
21/12:20pm 16.9 12.2 9.1 60 4.2 NW 24 28 13 15 - - 0.0
21/12:10pm 16.6 11.6 9.4 62 3.9 NW 26 30 14 16 - - 0.0
21/12:00pm 16.1 11.0 9.1 63 3.8 NW 26 30 14 16 - - 0.0
21/11:50am 15.7 11.1 9.6 67 3.3 NW 24 26 13 14 - - 0.0
21/11:40am 15.6 11.0 9.6 67 3.2 NW 24 26 13 14 - - 0.0
21/11:30am 15.3 10.7 9.6 69 3.1 NW 24 28 13 15 - - 0.0
21/11:20am 15.3 11.6 10.1 71 2.8 NW 20 22 11 12 - - 0.0
21/11:10am 15.1 10.9 9.9 71 2.8 NW 22 26 12 14 - - 0.0
21/11:00am 14.9 10.3 9.8 71 2.8 NW 24 28 13 15 - - 0.0
21/10:50am 14.9 9.9 9.5 70 2.9 NW 26 28 14 15 - - 0.0
21/10:40am 14.4 9.4 9.4 72 2.7 NW 26 26 14 14 - - 0.0
21/10:30am 13.8 8.8 9.4 75 2.3 NW 26 28 14 15 - - 0.0
21/10:20am 13.5 8.5 9.4 76 2.2 NW 26 28 14 15 - - 0.0
21/10:10am 13.5 8.8 9.4 76 2.2 NW 24 28 13 15 - - 0.0
21/10:00am 13.4 9.5 9.3 76 2.2 NW 20 22 11 12 - - 0.0
21/09:50am 12.9 9.5 9.3 79 1.9 NW 17 20 9 11 - - 0.0
21/09:40am 12.3 9.3 9.4 82 1.5 NW 15 17 8 9 - - 0.0
21/09:30am 12.0 8.9 9.0 82 1.6 NW 15 17 8 9 - - 0.0
21/09:20am 11.7 8.6 8.7 82 1.6 NW 15 17 8 9 - - 0.0
21/09:10am 11.3 8.5 8.6 83 1.4 NW 13 15 7 8 - - 0.0
21/09:00am 11.0 8.2 8.5 84 1.3 NW 13 15 7 8 - - 0.0
21/08:50am 10.8 7.5 8.2 84 1.3 NW 15 17 8 9 - - 0.0
21/08:40am 10.4 6.7 8.0 85 1.2 NW 17 19 9 10 - - 0.0
21/08:30am 10.1 6.0 7.9 86 1.1 NW 19 19 10 10 - - 0.0
21/08:20am 10.1 6.0 7.9 86 1.1 NNW 19 20 10 11 - - 0.0
21/08:10am 9.8 5.7 7.7 87 1.0 NNW 19 20 10 11 - - 0.0
21/08:00am 9.6 5.8 7.7 88 0.9 NNW 17 19 9 10 - - 0.0
21/07:50am 9.5 5.7 7.6 88 0.9 NNW 17 19 9 10 - - 0.0
21/07:40am 9.3 5.8 7.4 88 0.9 NW 15 17 8 9 - - 0.0
21/07:30am 9.3 5.8 7.2 87 1.0 NW 15 19 8 10 - - 0.0
21/07:20am 9.4 5.9 7.2 86 1.1 NNW 15 17 8 9 - - 0.0
21/07:10am 9.9 6.5 7.5 85 1.2 NNW 15 17 8 9 - - 0.0
21/07:00am 10.2 6.1 7.8 85 1.2 N 19 19 10 10 - - 0.0
21/06:50am 10.1 6.7 7.6 84 1.2 NNW 15 17 8 9 - - 0.0
21/06:40am 10.1 6.3 7.5 84 1.3 N 17 19 9 10 - - 0.0
21/06:30am 9.8 6.3 7.3 84 1.2 N 15 17 8 9 - - 0.0
21/06:20am 10.2 5.8 7.4 83 1.4 N 20 22 11 12 - - 0.0
21/06:10am 10.1 5.7 7.3 83 1.4 N 20 20 11 11 - - 0.0
21/06:00am 9.7 6.1 6.8 82 1.4 NNW 15 19 8 10 - - 0.0
21/05:50am 9.8 6.2 6.6 80 1.6 NNW 15 15 8 8 - - 0.0
21/05:40am 9.8 6.5 6.6 80 1.6 NNW 13 15 7 8 - - 0.0
21/05:30am 10.0 7.1 6.6 79 1.7 NNW 11 13 6 7 - - 0.0
21/05:20am 10.0 7.1 6.7 80 1.6 NNW 11 15 6 8 - - 0.0
21/05:10am 10.2 7.7 6.5 78 1.8 NNW 9 11 5 6 - - 0.0
21/05:00am 10.1 7.9 6.4 78 1.8 - 7 9 4 5 - - 0.0
21/04:50am 10.1 8.0 6.6 79 1.7 NNW 7 9 4 5 - - 0.0
21/04:40am 10.3 8.1 6.4 77 1.9 NNW 7 9 4 5 - - 0.0
21/04:30am 10.5 7.6 6.3 75 2.0 N 11 15 6 8 - - 0.0
21/04:20am 10.4 7.8 6.0 74 2.1 NNE 9 11 5 6 - - 0.0
21/04:10am 10.5 7.9 6.1 74 2.1 NNE 9 13 5 7 - - 0.0
21/04:00am 10.6 8.6 6.3 75 2.1 N 6 7 3 4 - - 0.0
21/03:50am 10.6 8.0 6.3 75 2.1 N 9 13 5 7 - - 0.0
21/03:40am 10.4 7.1 6.2 75 2.0 NNW 13 15 7 8 - - 0.0
21/03:30am 10.4 7.4 6.2 75 2.0 NNW 11 13 6 7 - - 0.0
21/03:20am 10.5 8.0 6.5 76 2.0 NNW 9 11 5 6 - - 0.0
21/03:10am 10.6 6.9 6.4 75 2.1 NW 15 19 8 10 - - 0.0
21/03:00am 10.4 5.4 6.5 77 1.9 NW 22 24 12 13 - - 0.0
21/02:50am 10.3 5.3 6.6 78 1.8 NW 22 24 12 13 - - 0.0
21/02:40am 10.1 5.2 6.8 80 1.6 NW 22 24 12 13 - - 0.0
21/02:30am 10.2 4.9 7.0 80 1.6 WNW 24 26 13 14 - - 0.0
21/02:20am 10.1 5.2 7.0 81 1.5 WNW 22 24 12 13 - - 0.0
21/02:10am 10.2 5.7 7.0 80 1.6 WNW 20 24 11 13 - - 0.0
21/02:00am 10.4 6.1 7.0 79 1.7 NW 19 20 10 11 - - 0.0
21/01:50am 10.7 6.8 7.0 78 1.8 NW 17 19 9 10 - - 0.0
21/01:40am 11.2 7.3 6.9 75 2.1 NW 17 19 9 10 - - 0.0
21/01:30am 12.1 8.8 6.6 69 2.7 WNW 13 15 7 8 - - 0.0
21/01:20am 12.8 9.4 6.1 64 3.3 NW 13 15 7 8 - - 0.0
21/01:10am 12.8 9.4 6.0 63 3.3 NNW 13 13 7 7 - - 0.0
21/01:00am 12.8 9.8 6.0 63 3.3 NW 11 19 6 10 - - 0.0
21/12:50am 12.8 8.7 6.1 64 3.3 NW 17 22 9 12 - - 0.0
21/12:40am 13.0 8.5 6.2 63 3.4 WNW 19 20 10 11 - - 0.0
21/12:30am 13.0 8.5 6.2 63 3.4 WNW 19 22 10 12 - - 0.0
21/12:20am 12.5 8.5 6.8 68 2.8 WNW 17 19 9 10 - - 0.0
21/12:10am 12.3 8.3 6.6 68 2.8 WNW 17 19 9 10 - - 0.0
21/12:00am 12.2 8.3 7.0 70 2.6 WNW 17 19 9 10 - - 0.0
 
Date/Time
EST
Temp
°C
App
Temp
°C
Dew
Point
°C
Rel
Hum
%
Delta-T
°C
Wind Press
QNH
hPa
Press
MSL
hPa
Rain since
9am
mm
Dir  Spd
km/h
Gust
km/h
Spd
kts
Gust
kts
20/11:50pm 12.9 8.6 6.8 66 3.1 WNW 19 19 10 10 - - 0.0
20/11:40pm 13.5 9.5 6.6 63 3.5 WNW 17 19 9 10 - - 0.0
20/11:30pm 13.3 9.9 6.1 61 3.6 NW 13 17 7 9 - - 0.0
20/11:20pm 13.0 9.7 6.6 65 3.2 WNW 13 15 7 8 - - 0.0
20/11:10pm 13.3 9.2 6.4 63 3.4 WNW 17 19 9 10 - - 0.0
20/11:00pm 13.2 8.8 6.6 64 3.3 NW 19 22 10 12 - - 0.0
20/10:50pm 13.0 8.4 6.6 65 3.2 NW 20 22 11 12 - - 0.0
20/10:40pm 12.5 8.6 7.3 70 2.6 NW 17 17 9 9 - - 0.0
20/10:30pm 12.6 8.4 7.3 70 2.7 WNW 19 19 10 10 - - 0.0
20/10:20pm 12.8 8.9 7.3 69 2.8 WNW 17 19 9 10 - - 0.0
20/10:10pm 13.1 9.2 7.1 67 3.0 NW 17 19 9 10 - - 0.0
20/10:00pm 13.4 8.9 7.0 65 3.2 NW 20 20 11 11 - - 0.0
20/09:50pm 13.5 9.1 6.7 63 3.4 NW 19 20 10 11 - - 0.0
20/09:40pm 13.5 9.5 6.6 63 3.5 NW 17 19 9 10 - - 0.0
20/09:30pm 13.7 9.3 6.7 62 3.5 NW 19 19 10 10 - - 0.0
20/09:20pm 13.8 9.9 6.9 63 3.5 NW 17 17 9 9 - - 0.0
20/09:10pm 13.8 10.2 6.8 62 3.5 WNW 15 17 8 9 - - 0.0
20/09:00pm 14.0 10.3 6.5 60 3.8 WNW 15 15 8 8 - - 0.0
20/08:50pm 14.1 10.5 6.7 61 3.7 WNW 15 15 8 8 - - 0.0
20/08:40pm 14.0 10.4 6.8 62 3.6 WNW 15 15 8 8 - - 0.0
20/08:30pm 14.0 10.1 7.0 62 3.5 WNW 17 17 9 9 - - 0.0
20/08:20pm 14.2 10.3 7.1 62 3.6 WNW 17 17 9 9 - - 0.0
20/08:10pm 14.3 10.8 7.0 61 3.7 WNW 15 17 8 9 - - 0.0
20/08:00pm 14.3 11.1 7.0 61 3.7 WNW 13 15 7 8 - - 0.0
20/07:50pm 14.3 11.2 7.4 63 3.5 WNW 13 13 7 7 - - 0.0
20/07:40pm 14.3 11.6 7.5 63 3.5 WNW 11 13 6 7 - - 0.0
20/07:30pm 14.2 11.2 7.9 66 3.3 NW 13 13 7 7 - - 0.0
20/07:20pm 14.2 11.3 8.1 66 3.2 NW 13 13 7 7 - - 0.0
20/07:10pm 14.5 11.6 8.1 65 3.3 NW 13 15 7 8 - - 0.0
20/07:00pm 14.5 11.6 8.1 65 3.3 NW 13 13 7 7 - - 0.0
20/06:50pm 14.8 11.5 8.1 64 3.5 NW 15 15 8 8 - - 0.0
20/06:40pm 15.0 11.7 8.0 63 3.6 NW 15 17 8 9 - - 0.0
20/06:30pm 15.0 11.7 8.0 63 3.6 NW 15 17 8 9 - - 0.0
20/06:20pm 15.1 11.5 8.2 63 3.6 NW 17 17 9 9 - - 0.0
20/06:10pm 15.2 11.6 8.2 63 3.7 NW 17 17 9 9 - - 0.0
20/06:00pm 15.3 11.6 8.0 61 3.8 WNW 17 19 9 10 - - 0.0
20/05:50pm 15.3 11.6 8.1 62 3.8 WNW 17 17 9 9 - - 0.0
20/05:40pm 15.5 11.5 8.1 61 3.9 WNW 19 20 10 11 - - 0.0
20/05:30pm 15.5 11.8 8.1 61 3.9 WNW 17 19 9 10 - - 0.0
20/05:20pm 15.5 11.5 8.2 62 3.8 WNW 19 20 10 11 - - 0.0
20/05:10pm 15.7 11.7 8.3 61 3.9 WNW 19 20 10 11 - - 0.0
20/05:00pm 15.9 12.0 8.5 61 3.9 WNW 19 20 10 11 - - 0.0
20/04:50pm 16.3 12.3 8.4 59 4.2 WNW 19 20 10 11 - - 0.0
20/04:40pm 16.6 12.4 8.4 58 4.3 WNW 20 22 11 12 - - 0.0
20/04:30pm 16.8 12.2 8.3 57 4.5 WNW 22 26 12 14 - - 0.0
20/04:20pm 17.0 12.1 8.4 57 4.6 WNW 24 26 13 14 - - 0.0
20/04:10pm 17.0 11.7 8.6 57 4.5 NW 26 33 14 18 - - 0.0
20/04:00pm 17.0 11.3 8.2 56 4.7 WNW 28 33 15 18 - - 0.0
20/03:50pm 16.9 11.2 8.2 56 4.6 WNW 28 33 15 18 - - 0.0
20/03:40pm 16.8 11.5 8.5 58 4.4 WNW 26 28 14 15 - - 0.0
20/03:30pm 17.1 12.6 8.6 57 4.5 NW 22 30 12 16 - - 0.0
20/03:20pm 16.6 11.0 8.6 59 4.3 NW 28 32 15 17 - - 0.0
20/03:10pm 17.0 11.8 8.8 58 4.4 NW 26 32 14 17 - - 0.0
20/03:00pm 16.9 10.8 8.2 56 4.6 NW 30 33 16 18 - - 0.0
20/02:50pm 16.8 10.7 8.1 56 4.6 NW 30 39 16 21 - - 0.0
20/02:40pm 16.8 11.4 8.2 57 4.5 NW 26 30 14 16 - - 0.0
20/02:30pm 16.3 10.9 8.2 58 4.3 NW 26 28 14 15 - - 0.0
20/02:20pm 15.9 10.6 8.4 61 4.0 NW 26 30 14 16 - - 0.0
20/02:10pm 15.9 11.1 8.8 62 3.8 NW 24 28 13 15 - - 0.0
20/02:00pm 15.8 10.6 8.8 63 3.7 NW 26 30 14 16 - - 0.0
20/01:50pm 15.8 10.6 9.0 64 3.6 NW 26 28 14 15 - - 0.0
20/01:40pm 16.0 11.2 8.9 62 3.8 NW 24 28 13 15 - - 0.0
20/01:30pm 15.9 10.4 9.0 63 3.7 NW 28 30 15 16 - - 0.0
20/01:20pm 15.7 10.5 8.7 63 3.7 NW 26 28 14 15 - - 0.0
20/01:10pm 15.5 11.0 8.7 64 3.6 NW 22 24 12 13 - - 0.0
20/01:00pm 15.3 11.2 8.8 65 3.4 NW 20 22 11 12 - - 0.0
20/12:50pm 14.9 11.0 8.6 66 3.3 NW 19 20 10 11 - - 0.0
20/12:40pm 14.5 10.7 8.9 69 3.0 NW 19 22 10 12 - - 0.0
20/12:30pm 14.2 10.7 8.7 69 2.9 NW 17 19 9 10 - - 0.0
20/12:20pm 13.8 10.3 8.6 71 2.7 NW 17 19 9 10 - - 0.0
20/12:10pm 13.5 10.2 8.2 70 2.7 NW 15 17 8 9 - - 0.0
20/12:00pm 13.3 10.4 8.2 71 2.6 NW 13 15 7 8 - - 0.0
20/11:50am 12.8 9.9 8.3 74 2.3 NW 13 15 7 8 - - 0.0
20/11:40am 12.5 9.3 8.4 76 2.1 NW 15 15 8 8 - - 0.0
20/11:30am 12.6 9.7 8.2 74 2.3 NW 13 15 7 8 - - 0.0
20/11:20am 12.7 10.2 8.1 73 2.4 NW 11 13 6 7 - - 0.0
20/11:10am 12.9 10.8 8.3 73 2.4 NW 9 11 5 6 - - 0.0
20/11:00am 12.8 11.1 8.2 73 2.4 NW 7 7 4 4 - - 0.0
20/10:50am 12.9 11.3 8.1 72 2.5 NW 6 7 3 4 - - 0.0
20/10:40am 13.1 11.5 7.8 70 2.7 NW 6 7 3 4 - - 0.0
20/10:30am 13.2 12.3 7.7 69 2.8 NW 2 4 1 2 - - 0.0
20/10:20am 12.1 11.7 8.1 76 2.0 CALM 0 2 0 1 - - 0.0
20/10:10am 11.7 10.4 7.7 76 2.0 WNW 4 6 2 3 - - 0.0
20/10:00am 11.9 11.1 8.1 77 1.9 NW 2 4 1 2 - - 0.0
20/09:50am 11.7 11.3 8.1 78 1.8 CALM 0 2 0 1 - - 0.0
20/09:40am 11.2 10.3 7.8 79 1.7 NNW 2 4 1 2 - - 0.0
20/09:30am 11.2 10.3 7.8 79 1.7 NW 2 4 1 2 - - 0.0
20/09:20am 11.5 10.5 7.4 76 2.1 NW 2 2 1 1 - - 0.0
20/09:10am 11.4 10.4 7.2 75 2.1 N 2 2 1 1 - - 0.0
20/09:00am 10.6 9.4 6.6 76 2.0 ESE 2 4 1 2 - - 0.0
20/08:50am 10.1 8.1 6.4 78 1.8 SE 6 6 3 3 - - 0.0
20/08:40am 10.3 8.7 6.4 77 1.9 SE 4 6 2 3 - - 0.0
20/08:30am 10.3 8.7 6.3 76 1.9 SSE 4 6 2 3 - - 0.0
20/08:20am 10.0 8.3 6.0 76 1.9 SE 4 6 2 3 - - 0.0
20/08:00am 9.9 8.6 6.0 77 1.9 SE 2 4 1 2 - - 0.0
20/07:50am 9.8 8.1 6.0 77 1.8 SE 4 4 2 2 - - 0.0
20/07:40am 9.7 8.0 6.0 78 1.8 SE 4 6 2 3 - - 0.0
20/07:30am 9.6 7.5 6.0 78 1.7 SE 6 6 3 3 - - 0.0
20/07:20am 9.8 7.8 6.1 78 1.8 ESE 6 6 3 3 - - 0.0
20/07:00am 9.7 7.6 5.9 77 1.8 SE 6 6 3 3 - - 0.0
20/06:50am 9.7 7.4 5.8 77 1.9 SE 7 7 4 4 - - 0.0
20/06:40am 9.6 7.3 5.8 77 1.8 SE 7 9 4 5 - - 0.0
20/06:30am 9.5 7.2 5.9 78 1.7 SE 7 9 4 5 - - 0.0
20/06:20am 9.4 7.1 5.9 79 1.7 SE 7 7 4 4 - - 0.0
20/06:10am 9.4 7.1 5.9 79 1.7 SE 7 7 4 4 - - 0.0
20/06:00am 9.7 7.4 5.9 77 1.8 ESE 7 7 4 4 - - 0.0
20/05:50am 9.9 7.8 5.9 76 1.9 ESE 6 6 3 3 - - 0.0
20/05:40am 9.9 7.6 5.8 75 2.0 SE 7 7 4 4 - - 0.0
20/05:30am 10.0 7.9 5.8 75 2.0 SE 6 7 3 4 - - 0.0
20/05:20am 10.1 8.4 5.8 74 2.1 SE 4 6 2 3 - - 0.0
20/05:10am 10.2 8.8 5.7 73 2.2 SSE 2 4 1 2 - - 0.0
20/05:00am 10.1 8.4 5.8 74 2.1 SE 4 4 2 2 - - 0.0
20/04:50am 10.2 8.5 5.9 74 2.1 SE 4 4 2 2 - - 0.0
20/04:40am 10.4 9.1 5.8 73 2.2 SSE 2 4 1 2 - - 0.0
20/04:30am 10.5 8.8 5.9 73 2.2 SE 4 6 2 3 - - 0.0
20/04:20am 10.5 8.8 5.8 72 2.3 SSE 4 6 2 3 - - 0.0
20/04:10am 10.5 8.4 5.8 72 2.3 SE 6 6 3 3 - - 0.0
20/04:00am 10.6 8.5 5.7 72 2.4 SSE 6 6 3 3 - - 0.0
20/03:50am 10.5 8.8 5.7 72 2.3 SSE 4 6 2 3 - - 0.0
20/03:40am 10.6 8.5 5.7 72 2.4 S 6 6 3 3 - - 0.0
20/03:30am 10.7 8.6 5.8 72 2.4 S 6 7 3 4 - - 0.0
20/03:20am 10.9 8.8 5.6 70 2.6 SSE 6 7 3 4 - - 0.0
20/03:10am 10.7 8.4 5.7 71 2.4 SSE 7 9 4 5 - - 0.0
20/03:00am 10.7 8.0 5.8 72 2.4 SSE 9 9 5 5 - - 0.0
20/02:50am 10.7 8.0 5.8 72 2.4 SSE 9 9 5 5 - - 0.0
20/02:40am 10.6 7.9 5.8 72 2.3 SSE 9 11 5 6 - - 0.0
20/02:30am 10.6 7.9 5.8 72 2.3 SSE 9 11 5 6 - - 0.0
20/02:20am 10.4 7.3 5.7 72 2.3 SSE 11 13 6 7 - - 0.0
20/02:10am 10.3 6.5 5.7 73 2.2 SE 15 15 8 8 - - 0.0
20/02:00am 10.2 6.0 5.8 74 2.1 SE 17 17 9 9 - - 0.0
20/01:50am 10.1 6.6 5.6 73 2.2 ESE 13 15 7 8 - - 0.0
20/01:40am 10.1 7.0 5.7 74 2.1 ESE 11 13 6 7 - - 0.0
20/01:30am 10.8 8.2 6.0 72 2.3 ESE 9 11 5 6 - - 0.0
20/01:20am 11.5 8.8 5.8 68 2.8 SSE 9 9 5 5 - - 0.0
20/01:10am 12.1 9.4 5.7 65 3.1 SSE 9 9 5 5 - - 0.0
20/01:00am 12.4 10.1 5.6 63 3.3 SSE 7 7 4 4 - - 0.0
20/12:50am 12.3 10.0 5.6 63 3.3 SE 7 9 4 5 - - 0.0
20/12:40am 12.2 9.5 5.6 64 3.2 SE 9 9 5 5 - - 0.0
20/12:30am 12.1 9.4 5.6 64 3.2 SE 9 11 5 6 - - 0.0
20/12:20am 12.0 8.9 5.7 65 3.1 SE 11 11 6 6 - - 0.0
20/12:10am 12.1 9.0 5.7 65 3.1 SE 11 11 6 6 - - 0.0
20/12:00am 12.1 9.0 5.5 64 3.2 SE 11 11 6 6 - - 0.0
 
Date/Time
EST
Temp
°C
App
Temp
°C
Dew
Point
°C
Rel
Hum
%
Delta-T
°C
Wind Press
QNH
hPa
Press
MSL
hPa
Rain since
9am
mm
Dir  Spd
km/h
Gust
km/h
Spd
kts
Gust
kts
19/11:50pm 11.7 8.2 5.6 66 3.0 SE 13 13 7 7 - - 0.0
19/11:40pm 11.5 8.4 5.6 67 2.9 ESE 11 13 6 7 - - 0.0
19/11:30pm 11.4 8.4 5.8 68 2.7 SE 11 13 6 7 - - 0.0
19/11:20pm 11.7 9.1 6.0 68 2.8 SE 9 9 5 5 - - 0.0
19/11:10pm 13.4 11.2 6.1 61 3.6 SSE 7 7 4 4 - - 0.0
19/11:00pm 13.9 11.8 5.7 57 4.0 SSE 6 7 3 4 - - 0.0
19/10:50pm 13.8 12.1 5.7 58 4.0 SSE 4 6 2 3 - - 0.0
19/10:40pm 13.9 12.2 5.7 57 4.0 SSE 4 4 2 2 - - 0.0
19/10:30pm 13.9 12.2 5.7 57 4.0 SSE 4 4 2 2 - - 0.0
19/10:20pm 13.9 12.2 5.7 57 4.0 SSE 4 6 2 3 - - 0.0
19/10:10pm 13.9 12.2 5.7 57 4.0 SSE 4 6 2 3 - - 0.0
19/10:00pm 13.9 11.8 5.7 57 4.0 SSE 6 7 3 4 - - 0.0
19/09:50pm 13.9 11.6 5.6 57 4.1 SE 7 9 4 5 - - 0.0
19/09:40pm 13.9 10.9 5.8 58 4.0 SE 11 11 6 6 - - 0.0
19/09:30pm 13.8 11.1 5.8 58 4.0 SE 9 11 5 6 - - 0.0
19/09:20pm 13.6 11.0 5.9 59 3.8 SE 9 9 5 5 - - 0.0
19/09:10pm 13.7 11.1 5.9 59 3.9 SE 9 11 5 6 - - 0.0
19/09:00pm 14.0 11.3 5.6 57 4.1 SE 9 9 5 5 - - 0.0
19/08:50pm 14.2 11.4 5.3 55 4.4 SE 9 9 5 5 - - 0.0
19/08:40pm 14.3 11.5 5.3 54 4.4 SSE 9 9 5 5 - - 0.0
19/08:30pm 14.3 11.6 5.4 55 4.4 SE 9 9 5 5 - - 0.0
19/08:20pm 14.4 11.6 5.2 54 4.5 SSE 9 9 5 5 - - 0.0
19/08:10pm 14.4 12.0 5.1 53 4.5 SSE 7 9 4 5 - - 0.0
19/08:00pm 14.4 11.6 5.1 53 4.5 SSE 9 9 5 5 - - 0.0
19/07:50pm 14.4 11.6 5.1 53 4.5 SSE 9 9 5 5 - - 0.0
19/07:40pm 14.5 11.7 5.1 53 4.6 SSE 9 9 5 5 - - 0.0
19/07:30pm 14.4 11.6 5.3 54 4.5 SSE 9 9 5 5 - - 0.0
19/07:20pm 14.2 11.5 5.4 55 4.3 SSE 9 9 5 5 - - 0.0
19/07:10pm 14.1 11.8 5.6 56 4.2 SSE 7 9 4 5 - - 0.0
19/07:00pm 14.4 12.1 5.7 56 4.3 SSE 7 7 4 4 - - 0.0
19/06:50pm 14.5 12.2 5.6 55 4.4 SE 7 7 4 4 - - 0.0
19/06:40pm 14.5 12.2 5.9 56 4.3 SE 7 7 4 4 - - 0.0
19/06:30pm 14.6 12.5 5.6 54 4.5 SSE 6 7 3 4 - - 0.0
19/06:20pm 14.6 12.5 5.7 55 4.4 S 6 6 3 3 - - 0.0
19/06:10pm 14.7 12.6 5.8 55 4.4 S 6 6 3 3 - - 0.0
19/06:00pm 14.8 12.7 5.6 54 4.6 SSE 6 6 3 3 - - 0.0
19/05:50pm 14.8 12.7 5.7 54 4.5 SE 6 7 3 4 - - 0.0
19/05:40pm 14.9 13.3 6.2 56 4.4 SE 4 6 2 3 - - 0.0
19/05:30pm 14.8 14.0 6.3 56 4.3 CALM 0 2 0 1 - - 0.0
19/05:20pm 14.9 14.1 6.6 57 4.2 CALM 0 0 0 0 - - 0.0
19/05:10pm 14.9 14.0 6.2 56 4.4 CALM 0 0 0 0 - - 0.0
19/05:00pm 15.1 14.3 6.5 56 4.3 CALM 0 0 0 0 - - 0.0
19/04:50pm 15.4 14.6 6.5 55 4.5 CALM 0 0 0 0 - - 0.0
19/04:40pm 15.8 15.0 6.6 54 4.7 CALM 0 0 0 0 - - 0.0
19/04:30pm 16.3 15.6 6.8 53 4.9 CALM 0 2 0 1 - - 0.0
19/04:20pm 16.4 14.8 6.5 52 5.0 NW 4 6 2 3 - - 0.0
19/04:10pm 16.2 14.3 6.6 53 4.9 NW 6 7 3 4 - - 0.0
19/04:00pm 16.3 14.8 6.9 53 4.8 W 4 7 2 4 - - 0.0
19/03:50pm 16.4 15.5 7.7 56 4.5 NNE 2 6 1 3 - - 0.0
19/03:40pm 16.3 14.8 8.4 59 4.2 WNW 6 9 3 5 - - 0.0
19/03:30pm 16.2 13.9 7.3 55 4.6 WNW 9 11 5 6 - - 0.0
19/03:20pm 16.0 13.4 7.7 58 4.3 WNW 11 13 6 7 - - 0.0
19/03:10pm 16.2 14.5 8.2 59 4.2 WNW 7 11 4 6 - - 0.0
19/03:00pm 16.0 13.5 8.4 60 4.0 WNW 11 13 6 7 - - 0.0
19/02:50pm 15.9 13.4 8.2 60 4.0 NW 11 13 6 7 - - 0.0
19/02:40pm 15.9 13.3 7.6 58 4.3 WNW 11 11 6 6 - - 0.0
19/02:30pm 16.0 13.4 7.7 58 4.3 WNW 11 11 6 6 - - 0.0
19/02:20pm 16.5 14.9 8.0 57 4.5 NNW 6 9 3 5 - - 0.0
19/02:00pm 17.3 15.5 8.1 54 4.9 NNW 7 15 4 8 - - 0.0
19/01:50pm 16.7 14.8 7.5 54 4.8 NNW 7 13 4 7 - - 0.0
19/01:40pm 17.1 15.3 8.0 55 4.8 NNW 7 13 4 7 - - 0.0
19/01:30pm 17.6 16.0 8.0 53 5.1 NNW 6 11 3 6 - - 0.0
19/01:20pm 17.7 16.2 8.6 55 4.9 NNE 6 7 3 4 - - 0.0
19/01:10pm 16.9 15.4 8.4 57 4.5 NE 6 9 3 5 - - 0.0
19/01:00pm 16.1 15.1 8.7 61 3.9 E 4 6 2 3 - - 0.0
19/12:50pm 15.8 14.2 8.2 60 4.0 ENE 6 7 3 4 - - 0.0
19/12:40pm 14.9 13.3 8.6 66 3.3 SE 7 9 4 5 - - 0.0
19/12:30pm 14.9 13.3 8.6 66 3.3 ESE 7 13 4 7 - - 0.0
19/12:20pm 14.8 12.3 8.2 64 3.4 ESE 11 13 6 7 - - 0.0
19/12:10pm 14.7 12.3 8.7 67 3.2 ESE 11 15 6 8 - - 0.0
19/12:00pm 15.3 13.8 9.0 66 3.4 ENE 7 9 4 5 - - 0.0
19/11:50am 14.4 12.8 8.9 69 2.9 ESE 7 13 4 7 - - 0.0
19/11:40am 14.5 13.1 8.8 68 3.0 ESE 6 7 3 4 - - 0.0
19/11:30am 14.0 12.7 9.1 72 2.6 ESE 6 7 3 4 - - 0.0
19/11:20am 13.7 12.3 8.9 73 2.5 SE 6 9 3 5 - - 0.0
19/11:10am 13.4 11.9 9.0 75 2.3 SE 7 9 4 5 - - 0.0
19/11:00am 13.1 11.1 8.5 73 2.4 SE 9 13 5 7 - - 0.0
19/10:50am 12.6 9.7 8.3 75 2.2 SE 13 13 7 7 - - 0.0

Other formats

Comma delimited format used in spreadsheet applications
http://www.bom.gov.au/fwo/IDN60801/IDN60801.99763.axf

JavaScript Object Notation format (JSON) in row-major order
http://www.bom.gov.au/fwo/IDN60801/IDN60801.99763.json

Data quality

Most of these data are generated automatically and are frequently updated. Quality checks on data are not normally performed. It is possible for incorrect values to appear. Refer to information at About Latest Weather Observations and please check the disclaimer before using these data.